createdAt,value
2022-08-28T00:02:01.455Z,101883.91
2022-08-28T00:04:03.911Z,101886.50
2022-08-28T00:06:06.285Z,101882.16
2022-08-28T00:08:10.032Z,101885.66
2022-08-28T00:10:14.881Z,101883.00
2022-08-28T00:12:17.880Z,101880.41
2022-08-28T00:14:21.502Z,101884.75
2022-08-28T00:16:23.731Z,101874.31
2022-08-28T00:18:30.490Z,101879.53
2022-08-28T00:20:33.616Z,101883.03
2022-08-28T00:22:36.509Z,101878.66
2022-08-28T00:24:38.693Z,101887.38
2022-08-28T00:26:59.120Z,101881.28
2022-08-28T00:29:01.527Z,101887.34
2022-08-28T00:31:05.390Z,101889.97
2022-08-28T00:33:16.028Z,101888.25
2022-08-28T00:35:20.917Z,101885.63
2022-08-28T00:37:24.632Z,101883.88
2022-08-28T00:39:26.811Z,101883.84
2022-08-28T00:41:31.539Z,101881.25
2022-08-28T00:43:42.665Z,101884.69
2022-08-28T00:45:44.705Z,101883.81
2022-08-28T00:47:47.496Z,101882.13
2022-08-28T00:49:53.419Z,101888.19
2022-08-28T00:52:08.276Z,101885.59
2022-08-28T00:54:13.604Z,101886.44
2022-08-28T00:56:18.775Z,101884.69
2022-08-28T00:58:20.948Z,101886.44
2022-08-28T01:00:35.217Z,101889.91
2022-08-28T01:02:37.452Z,101884.69
2022-08-28T01:04:39.874Z,101889.06
2022-08-28T01:06:41.948Z,101879.47
2022-08-28T01:08:50.409Z,101881.22
2022-08-28T01:10:55.461Z,101884.69
2022-08-28T01:12:58.816Z,101883.81
2022-08-28T01:15:15.700Z,101885.56
2022-08-28T01:17:21.272Z,101889.91
2022-08-28T01:19:38.392Z,101894.28
2022-08-28T01:21:54.960Z,101891.63
2022-08-28T01:24:04.897Z,101886.41
2022-08-28T01:26:11.876Z,101889.88
2022-08-28T01:28:23.474Z,101887.28
2022-08-28T01:30:25.342Z,101892.50
2022-08-28T01:32:38.423Z,101886.38
2022-08-28T01:35:15.666Z,101881.09
2022-08-28T01:37:17.404Z,101882.03
2022-08-28T01:39:28.487Z,101882.03
2022-08-28T01:41:30.946Z,101882.81
2022-08-28T01:43:33.014Z,101881.97
2022-08-28T01:45:37.777Z,101888.03
2022-08-28T01:47:41.130Z,101886.31
2022-08-28T01:49:43.916Z,101881.97
2022-08-28T01:51:46.689Z,101883.69
2022-08-28T01:53:50.555Z,101881.09
2022-08-28T01:55:54.408Z,101884.56
2022-08-28T01:57:56.615Z,101889.78
2022-08-28T01:59:58.730Z,101876.72
2022-08-28T02:02:01.555Z,101892.38
2022-08-28T02:04:04.867Z,101879.31
2022-08-28T02:06:07.464Z,101876.69
2022-08-28T02:08:10.326Z,101881.03
2022-08-28T02:10:12.701Z,101882.78
2022-08-28T02:12:15.034Z,101881.88
2022-08-28T02:14:17.090Z,101886.25
2022-08-28T02:16:19.737Z,101890.59
2022-08-28T02:18:22.027Z,101884.53
2022-08-28T02:20:25.111Z,101882.78
2022-08-28T02:22:27.874Z,101882.78
2022-08-28T02:24:30.041Z,101894.09
2022-08-28T02:26:33.464Z,101886.25
2022-08-28T02:28:36.471Z,101895.81
2022-08-28T02:30:40.325Z,101894.97
2022-08-28T02:32:42.345Z,101896.66
2022-08-28T02:34:46.572Z,101890.56
2022-08-28T02:36:49.288Z,101897.50
2022-08-28T02:38:56.966Z,101895.78
2022-08-28T02:40:59.714Z,101903.56
2022-08-28T02:43:06.283Z,101900.06
2022-08-28T02:45:19.425Z,101900.94
2022-08-28T02:47:21.420Z,101887.91
2022-08-28T02:49:24.155Z,101894.00
2022-08-28T02:51:30.929Z,101894.88
2022-08-28T02:53:33.250Z,101889.63
2022-08-28T02:55:35.242Z,101892.25
2022-08-28T02:57:37.515Z,101888.75
2022-08-28T02:59:40.166Z,101886.09
2022-08-28T03:01:42.157Z,101887.84
2022-08-28T03:03:44.428Z,101882.63
2022-08-28T03:05:46.939Z,101885.19
2022-08-28T03:07:49.994Z,101879.97
2022-08-28T03:09:52.305Z,101887.78
2022-08-28T03:11:54.604Z,101890.38
2022-08-28T03:13:56.738Z,101888.59
2022-08-28T03:15:58.909Z,101883.38
2022-08-28T03:18:00.857Z,101884.25
2022-08-28T03:20:08.193Z,101882.50
2022-08-28T03:22:10.127Z,101879.84
2022-08-28T03:24:11.964Z,101886.84
2022-08-28T03:26:20.791Z,101887.72
2022-08-28T03:28:22.880Z,101889.41
2022-08-28T03:30:25.375Z,101884.19
2022-08-28T03:32:29.336Z,101882.44
2022-08-28T03:34:31.293Z,101888.50
2022-08-28T03:36:33.527Z,101889.31
2022-08-28T03:38:35.843Z,101891.06
2022-08-28T03:40:44.318Z,101891.00
2022-08-28T03:42:53.547Z,101892.75
2022-08-28T03:44:55.929Z,101892.75
2022-08-28T03:46:57.763Z,101889.25
2022-08-28T03:49:01.618Z,101890.97
2022-08-28T03:51:12.301Z,101894.44
2022-08-28T03:53:14.170Z,101891.81
2022-08-28T03:55:16.923Z,101898.78
2022-08-28T03:57:21.111Z,101892.66
2022-08-28T03:59:32.006Z,101896.94
2022-08-28T04:01:38.325Z,101890.88
2022-08-28T04:03:40.417Z,101890.00
2022-08-28T04:05:44.057Z,101889.97
2022-08-28T04:07:46.061Z,101895.19
2022-08-28T04:09:47.923Z,101894.31
2022-08-28T04:11:49.808Z,101889.13
2022-08-28T04:13:51.776Z,101890.84
2022-08-28T04:16:06.462Z,101891.69
2022-08-28T04:18:09.811Z,101897.75
2022-08-28T04:20:11.860Z,101901.22
2022-08-28T04:22:13.690Z,101902.84
2022-08-28T04:24:15.672Z,101906.41
2022-08-28T04:26:21.201Z,101901.09
2022-08-28T04:28:24.067Z,101904.63
2022-08-28T04:30:25.929Z,101899.38
2022-08-28T04:32:27.904Z,101895.91
2022-08-28T04:34:31.049Z,101894.16
2022-08-28T04:36:36.042Z,101906.28
2022-08-28T04:38:43.539Z,101905.47
2022-08-28T04:40:46.595Z,101911.53
2022-08-28T04:42:50.972Z,101910.56
2022-08-28T04:44:58.167Z,101904.50
2022-08-28T04:47:00.406Z,101914.91
2022-08-28T04:49:04.688Z,101912.28
2022-08-28T04:51:09.147Z,101914.00
2022-08-28T04:53:11.763Z,101906.19
2022-08-28T04:55:14.571Z,101911.38
2022-08-28T04:57:20.101Z,101912.25
2022-08-28T04:59:31.463Z,101914.81
2022-08-28T05:01:33.652Z,101913.00
2022-08-28T05:03:35.777Z,101916.47
2022-08-28T05:05:46.253Z,101917.38
2022-08-28T05:07:48.207Z,101925.16
2022-08-28T05:09:53.971Z,101919.94
2022-08-28T05:11:55.837Z,101921.69
2022-08-28T05:13:57.751Z,101912.94
2022-08-28T05:16:02.922Z,101917.28
2022-08-28T05:18:05.108Z,101925.97
2022-08-28T05:20:07.371Z,101921.63
2022-08-28T05:22:13.720Z,101926.81
2022-08-28T05:24:17.306Z,101925.06
2022-08-28T05:26:20.092Z,101928.47
2022-08-28T05:28:24.580Z,101930.25
2022-08-28T05:30:27.309Z,101933.75
2022-08-28T05:32:29.044Z,101936.38
2022-08-28T05:34:31.487Z,101934.63
2022-08-28T05:36:35.940Z,101934.59
2022-08-28T05:38:38.750Z,101937.19
2022-08-28T05:40:46.419Z,101944.03
2022-08-28T05:42:52.260Z,101937.13
2022-08-28T05:44:54.765Z,101949.28
2022-08-28T05:46:56.743Z,101938.94
2022-08-28T05:49:00.468Z,101940.56
2022-08-28T05:51:14.997Z,101936.25
2022-08-28T05:53:18.190Z,101937.97
2022-08-28T05:55:19.880Z,101948.47
2022-08-28T05:57:21.572Z,101945.88
2022-08-28T05:59:27.583Z,101943.28
2022-08-28T06:01:32.222Z,101947.59
2022-08-28T06:03:35.122Z,101951.09
2022-08-28T06:05:38.179Z,101959.75
2022-08-28T06:07:41.150Z,101960.66
2022-08-28T06:09:43.556Z,101964.13
2022-08-28T06:11:46.312Z,101966.72
2022-08-28T06:13:48.494Z,101964.91
2022-08-28T06:15:50.693Z,101963.22
2022-08-28T06:17:54.282Z,101968.44
2022-08-28T06:19:56.143Z,101970.19
2022-08-28T06:22:00.141Z,101969.31
2022-08-28T06:24:03.771Z,101971.09
2022-08-28T06:26:07.060Z,101959.88
2022-08-28T06:28:08.793Z,101977.19
2022-08-28T06:30:11.523Z,101973.75
2022-08-28T06:32:13.370Z,101969.44
2022-08-28T06:34:15.233Z,101970.38
2022-08-28T06:36:17.095Z,101977.38
2022-08-28T06:38:21.045Z,101979.13
2022-08-28T06:40:23.159Z,101979.13
2022-08-28T06:42:25.298Z,101980.91
2022-08-28T06:44:27.149Z,101980.09
2022-08-28T06:46:30.546Z,101985.31
2022-08-28T06:48:32.390Z,101987.94
2022-08-28T06:50:34.718Z,101991.47
2022-08-28T06:52:36.405Z,101988.91
2022-08-28T06:54:40.461Z,101989.75
2022-08-28T06:56:59.883Z,101992.41
2022-08-28T06:59:02.689Z,101992.44
2022-08-28T07:01:10.805Z,101985.50
2022-08-28T07:03:14.227Z,101993.34
2022-08-28T07:05:19.415Z,101989.00
2022-08-28T07:07:31.854Z,101990.78
2022-08-28T07:09:34.205Z,101995.16
2022-08-28T07:11:37.170Z,101992.59
2022-08-28T07:13:38.865Z,101999.53
2022-08-28T07:15:41.865Z,102000.44
2022-08-28T07:17:44.321Z,101995.25
2022-08-28T07:19:46.600Z,101997.06
2022-08-28T07:21:48.296Z,101997.09
2022-08-28T07:23:50.417Z,101997.97
2022-08-28T07:25:52.529Z,102004.09
2022-08-28T07:27:54.389Z,102002.41
2022-08-28T07:29:56.065Z,102006.75
2022-08-28T07:31:59.080Z,102005.00
2022-08-28T07:34:00.885Z,102008.50
2022-08-28T07:36:03.468Z,101997.22
2022-08-28T07:38:05.333Z,101999.03
2022-08-28T07:40:08.680Z,102000.78
2022-08-28T07:42:35.765Z,101996.44
2022-08-28T07:44:50.429Z,102007.75
2022-08-28T07:46:57.600Z,102000.81
2022-08-28T07:48:59.582Z,102004.31
2022-08-28T07:51:05.738Z,102006.94
2022-08-28T07:53:08.207Z,102003.47
2022-08-28T07:55:10.087Z,102004.34
2022-08-28T07:57:11.782Z,102004.34
2022-08-28T07:59:16.972Z,102003.53
2022-08-28T08:01:19.724Z,101999.19
2022-08-28T08:03:22.962Z,102004.41
2022-08-28T08:05:25.735Z,101997.47
2022-08-28T08:07:27.462Z,101998.38
2022-08-28T08:09:29.194Z,102002.75
2022-08-28T08:11:32.497Z,102000.19
2022-08-28T08:13:35.248Z,102002.78
2022-08-28T08:15:37.142Z,102001.97
2022-08-28T08:17:39.412Z,102002.00
2022-08-28T08:19:41.157Z,102002.88
2022-08-28T08:21:45.105Z,101999.38
2022-08-28T08:23:47.842Z,102004.69
2022-08-28T08:26:00.962Z,102006.47
2022-08-28T08:28:04.001Z,101998.69
2022-08-28T08:30:06.215Z,102000.44
2022-08-28T08:32:10.647Z,102007.44
2022-08-28T08:34:12.362Z,102001.34
2022-08-28T08:36:15.730Z,102003.13
2022-08-28T08:38:17.411Z,102006.63
2022-08-28T08:40:20.702Z,102007.53
2022-08-28T08:42:30.140Z,102002.34
2022-08-28T08:44:41.972Z,102004.94
2022-08-28T08:46:53.780Z,102001.47
2022-08-28T08:49:10.473Z,101998.94
2022-08-28T08:51:25.381Z,101997.13
2022-08-28T08:53:36.018Z,101989.34
2022-08-28T08:55:50.517Z,102001.56
2022-08-28T08:58:16.551Z,102001.56
2022-08-28T09:00:20.412Z,102002.44
2022-08-28T09:02:31.458Z,102011.16
2022-08-28T09:04:45.073Z,102008.53
2022-08-28T09:07:00.230Z,102004.19
2022-08-28T09:09:07.211Z,102005.06
2022-08-28T09:11:26.994Z,102004.16
2022-08-28T09:13:52.940Z,102007.66
2022-08-28T09:16:05.583Z,102013.75
2022-08-28T09:18:25.961Z,102012.91
2022-08-28T09:20:33.215Z,102012.91
2022-08-28T09:22:37.291Z,102009.41
2022-08-28T09:24:41.336Z,102012.88
2022-08-28T09:26:43.279Z,102016.34
2022-08-28T09:28:58.265Z,102016.31
2022-08-28T09:31:39.419Z,102004.06
2022-08-28T09:33:51.498Z,102008.41
2022-08-28T09:35:53.185Z,102004.94
2022-08-28T09:37:55.967Z,102000.53
2022-08-28T09:40:17.224Z,102006.59
2022-08-28T09:42:42.414Z,102006.59
2022-08-28T09:45:09.247Z,102001.38
2022-08-28T09:47:46.126Z,101997.88
2022-08-28T09:49:48.397Z,101994.34
2022-08-28T09:51:50.765Z,101994.34
2022-08-28T09:53:52.421Z,101993.50
2022-08-28T09:56:03.294Z,101989.06
2022-08-28T09:58:06.439Z,101999.53
2022-08-28T10:00:08.905Z,102000.34
2022-08-28T10:02:46.625Z,101997.63
2022-08-28T10:05:10.685Z,101993.16
2022-08-28T10:07:40.426Z,101997.44
2022-08-28T10:10:22.844Z,101996.59
2022-08-28T10:12:52.534Z,101993.94
2022-08-28T10:15:00.105Z,101997.38
2022-08-28T10:17:25.546Z,101987.75
2022-08-28T10:20:03.017Z,101995.59
2022-08-28T10:22:19.355Z,101992.13
2022-08-28T10:24:31.320Z,101994.78
2022-08-28T10:27:00.533Z,101994.72
2022-08-28T10:29:39.487Z,101988.63
2022-08-28T10:31:49.170Z,101983.31
2022-08-28T10:34:15.630Z,101975.34
2022-08-28T10:36:34.044Z,101981.41
2022-08-28T10:38:40.404Z,101976.00
2022-08-28T10:40:49.928Z,101981.25
2022-08-28T10:43:00.645Z,101985.59
2022-08-28T10:45:08.722Z,101979.50
2022-08-28T10:47:13.107Z,101982.88
2022-08-28T10:49:34.818Z,101985.50
2022-08-28T10:51:44.953Z,101990.72
2022-08-28T10:53:56.726Z,101982.00
2022-08-28T10:56:03.111Z,101982.78
2022-08-28T10:58:24.364Z,101984.53
2022-08-28T11:00:33.059Z,101993.28
2022-08-28T11:02:37.720Z,101978.38
2022-08-28T11:04:40.185Z,101977.44
2022-08-28T11:06:48.247Z,101975.72
2022-08-28T11:08:53.847Z,101970.38
2022-08-28T11:10:58.512Z,101967.81
2022-08-28T11:13:01.558Z,101971.34
2022-08-28T11:15:40.928Z,101966.06
2022-08-28T11:17:43.491Z,101968.75
2022-08-28T11:19:53.584Z,101971.31
2022-08-28T11:22:15.486Z,101973.91
2022-08-28T11:24:30.498Z,101963.41
2022-08-28T11:26:38.443Z,101964.25
2022-08-28T11:28:47.498Z,101958.97
2022-08-28T11:31:10.208Z,101961.50
2022-08-28T11:33:44.303Z,101952.66
2022-08-28T11:35:49.678Z,101956.13
2022-08-28T11:37:54.996Z,101947.47
2022-08-28T11:40:33.892Z,101956.19
2022-08-28T11:42:37.708Z,101939.50
2022-08-28T11:44:42.554Z,101952.56
2022-08-28T11:46:52.185Z,101957.03
2022-08-28T11:48:57.277Z,101955.31
2022-08-28T11:51:07.061Z,101954.44
2022-08-28T11:53:22.846Z,101951.78
2022-08-28T11:55:31.585Z,101952.72
2022-08-28T12:00:23.882Z,101951.09
2022-08-28T12:02:40.558Z,101952.81
2022-08-28T12:04:43.271Z,101956.28
2022-08-28T12:06:53.409Z,101953.59
2022-08-28T12:08:58.620Z,101959.66
2022-08-28T12:11:04.304Z,101954.41
2022-08-28T12:13:07.867Z,101957.78
2022-08-28T12:15:10.709Z,101947.28
2022-08-28T12:17:15.196Z,101939.31
2022-08-28T12:19:59.313Z,101956.69
2022-08-28T12:22:13.662Z,101952.97
2022-08-28T12:24:22.679Z,101950.38
2022-08-28T12:26:30.120Z,101952.91
2022-08-28T12:29:14.494Z,101950.84
2022-08-28T12:31:58.976Z,101943.75
2022-08-28T12:34:10.707Z,101944.81
2022-08-28T12:36:16.849Z,101943.72
2022-08-28T12:38:22.057Z,101943.41
2022-08-28T12:40:50.281Z,101948.66
2022-08-28T12:42:58.739Z,101936.19
2022-08-28T12:45:07.565Z,101936.75
2022-08-28T12:47:16.528Z,101933.00
2022-08-28T12:49:37.080Z,101936.38
2022-08-28T12:51:38.800Z,101939.63
2022-08-28T12:53:46.996Z,101935.72
2022-08-28T12:55:48.809Z,101925.94
2022-08-28T12:57:51.353Z,101931.78
2022-08-28T12:59:55.590Z,101930.63
2022-08-28T13:02:03.749Z,101941.00
2022-08-28T13:04:27.702Z,101940.72
2022-08-28T13:06:38.614Z,101931.56
2022-08-28T13:08:40.748Z,101933.09
2022-08-28T13:10:49.493Z,101935.72
2022-08-28T13:13:07.151Z,101933.25
2022-08-28T13:15:12.476Z,101936.56
2022-08-28T13:17:35.575Z,101939.97
2022-08-28T13:19:38.435Z,101924.97
2022-08-28T13:21:51.946Z,101931.25
2022-08-28T13:23:58.403Z,101921.22
2022-08-28T13:26:06.788Z,101931.69
2022-08-28T13:28:17.796Z,101931.09
2022-08-28T13:30:26.565Z,101930.09
2022-08-28T13:32:30.786Z,101929.47
2022-08-28T13:34:35.814Z,101923.34
2022-08-28T13:36:49.445Z,101921.88
2022-08-28T13:38:51.144Z,101932.50
2022-08-28T13:41:03.575Z,101927.31
2022-08-28T13:43:10.161Z,101917.81
2022-08-28T13:45:13.363Z,101916.13
2022-08-28T13:47:15.785Z,101921.53
2022-08-28T13:49:29.225Z,101912.31
2022-08-28T13:51:30.950Z,101912.13
2022-08-28T13:53:33.866Z,101910.25
2022-08-28T13:55:35.639Z,101912.75
2022-08-28T13:57:37.360Z,101910.00
2022-08-28T13:59:39.134Z,101901.03
2022-08-28T14:01:59.801Z,101914.31
2022-08-28T14:04:01.392Z,101907.19
2022-08-28T14:06:06.259Z,101908.31
2022-08-28T14:08:07.983Z,101914.44
2022-08-28T14:10:10.019Z,101913.09
2022-08-28T14:12:12.428Z,101909.13
2022-08-28T14:14:14.335Z,101907.59
2022-08-28T14:16:16.907Z,101907.38
2022-08-28T14:18:18.719Z,101912.00
2022-08-28T14:20:21.698Z,101900.28
2022-08-28T14:22:23.671Z,101905.38
2022-08-28T14:24:26.213Z,101907.69
2022-08-28T14:26:29.708Z,101907.56
2022-08-28T14:28:31.506Z,101915.63
2022-08-28T14:30:33.434Z,101905.75
2022-08-28T14:32:35.629Z,101901.81
2022-08-28T14:34:38.778Z,101891.69
2022-08-28T14:36:41.838Z,101896.41
2022-08-28T14:38:43.641Z,101891.72
2022-08-28T14:40:45.687Z,101891.47
2022-08-28T14:42:47.693Z,101884.38
2022-08-28T14:44:49.440Z,101894.84
2022-08-28T14:46:52.705Z,101895.34
2022-08-28T14:49:02.074Z,101892.22
2022-08-28T14:51:04.715Z,101895.25
2022-08-28T14:53:06.490Z,101896.84
2022-08-28T14:55:11.157Z,101895.31
2022-08-28T14:57:13.729Z,101895.56
2022-08-28T14:59:30.294Z,101887.59
2022-08-28T15:01:40.420Z,101893.69
2022-08-28T15:03:42.725Z,101892.28
2022-08-28T15:05:45.344Z,101889.81
2022-08-28T15:07:47.064Z,101895.44
2022-08-28T15:09:48.786Z,101890.06
2022-08-28T15:11:50.492Z,101898.03
2022-08-28T15:13:53.058Z,101892.53
2022-08-28T15:16:02.894Z,101900.31
2022-08-28T15:18:05.378Z,101895.06
2022-08-28T15:20:07.650Z,101891.91
2022-08-28T15:22:09.318Z,101895.66
2022-08-28T15:24:13.479Z,101902.91
2022-08-28T15:26:16.120Z,101899.72
2022-08-28T15:28:17.992Z,101902.13
2022-08-28T15:30:19.746Z,101905.88
2022-08-28T15:32:21.430Z,101904.56
2022-08-28T15:34:25.165Z,101911.03
2022-08-28T15:36:26.847Z,101910.56
2022-08-28T15:38:28.647Z,101915.25
2022-08-28T15:40:49.242Z,101909.97
2022-08-28T15:42:50.783Z,101908.31
2022-08-28T15:44:52.466Z,101917.22
2022-08-28T15:46:57.695Z,101918.44
2022-08-28T15:49:04.601Z,101921.88
2022-08-28T15:51:09.519Z,101917.75
2022-08-28T15:53:12.484Z,101912.28
2022-08-28T15:55:14.289Z,101918.44
2022-08-28T15:57:16.314Z,101919.41
2022-08-28T15:59:38.101Z,101920.75
2022-08-28T16:01:51.466Z,101917.94
2022-08-28T16:03:53.504Z,101916.31
2022-08-28T16:05:55.295Z,101923.44
2022-08-28T16:07:56.998Z,101922.25
2022-08-28T16:09:58.849Z,101911.91
2022-08-28T16:12:00.556Z,101916.78
2022-08-28T16:14:04.632Z,101913.31
2022-08-28T16:16:07.458Z,101914.38
2022-08-28T16:18:09.602Z,101925.19
2022-08-28T16:20:12.830Z,101917.25
2022-08-28T16:22:18.004Z,101926.69
2022-08-28T16:24:19.778Z,101921.84
2022-08-28T16:26:21.593Z,101920.81
2022-08-28T16:28:23.337Z,101914.69
2022-08-28T16:30:25.091Z,101914.00
2022-08-28T16:32:27.021Z,101918.41
2022-08-28T16:34:31.516Z,101916.72
2022-08-28T16:36:33.622Z,101913.22
2022-08-28T16:38:44.112Z,101908.28
2022-08-28T16:40:46.774Z,101917.09
2022-08-28T16:42:51.802Z,101911.66
2022-08-28T16:44:57.692Z,101906.56
2022-08-28T16:46:59.682Z,101909.06
2022-08-28T16:49:01.702Z,101916.97
2022-08-28T16:51:04.040Z,101911.81
2022-08-28T16:53:07.146Z,101909.16
2022-08-28T16:55:11.160Z,101909.25
2022-08-28T16:57:12.931Z,101903.91
2022-08-28T16:59:29.780Z,101908.47
2022-08-28T17:01:31.740Z,101908.53
2022-08-28T17:03:33.590Z,101911.88
2022-08-28T17:05:35.292Z,101909.31
2022-08-28T17:07:40.084Z,101904.81
2022-08-28T17:09:41.888Z,101917.16
2022-08-28T17:11:43.632Z,101902.47
2022-08-28T17:13:45.778Z,101904.19
2022-08-28T17:15:47.608Z,101904.22
2022-08-28T17:17:49.498Z,101906.00
2022-08-28T17:19:51.245Z,101907.09
2022-08-28T17:22:11.410Z,101907.09
2022-08-28T17:24:13.639Z,101912.53
2022-08-28T17:26:16.122Z,101922.00
2022-08-28T17:28:18.047Z,101907.13
2022-08-28T17:30:20.765Z,101905.31
2022-08-28T17:32:22.593Z,101910.66
2022-08-28T17:34:29.486Z,101919.53
2022-08-28T17:36:33.458Z,101924.84
2022-08-28T17:38:36.439Z,101919.53
2022-08-28T17:40:39.395Z,101922.03
2022-08-28T17:42:41.704Z,101922.16
2022-08-28T17:44:43.663Z,101925.78
2022-08-28T17:46:45.957Z,101924.94
2022-08-28T17:48:54.433Z,101924.25
2022-08-28T17:50:58.660Z,101928.78
2022-08-28T17:53:00.970Z,101933.25
2022-08-28T17:55:03.686Z,101925.28
2022-08-28T17:57:05.673Z,101927.16
2022-08-28T17:59:07.842Z,101924.59
2022-08-28T18:01:09.618Z,101927.16
2022-08-28T18:03:11.871Z,101927.31
2022-08-28T18:05:14.638Z,101935.91
2022-08-28T18:07:16.725Z,101934.13
2022-08-28T18:09:27.584Z,101935.09
2022-08-28T18:11:29.568Z,101932.34
2022-08-28T18:13:32.131Z,101933.25
2022-08-28T18:15:34.513Z,101935.06
2022-08-28T18:17:39.732Z,101939.47
2022-08-28T18:19:42.136Z,101936.19
2022-08-28T18:21:44.832Z,101948.50
2022-08-28T18:23:46.811Z,101944.16
2022-08-28T18:25:50.920Z,101947.75
2022-08-28T18:27:52.945Z,101946.78
2022-08-28T18:29:55.891Z,101943.50
2022-08-28T18:31:57.686Z,101946.88
2022-08-28T18:33:59.862Z,101935.44
2022-08-28T18:36:02.201Z,101938.22
2022-08-28T18:38:05.089Z,101934.66
2022-08-28T18:40:07.569Z,101942.50
2022-08-28T18:42:09.882Z,101947.69
2022-08-28T18:44:15.520Z,101944.25
2022-08-28T18:46:17.798Z,101945.25
2022-08-28T18:48:19.963Z,101952.19
2022-08-28T18:50:22.323Z,101959.16
2022-08-28T18:52:24.220Z,101958.31
2022-08-28T18:54:26.290Z,101960.09
2022-08-28T18:56:32.495Z,101960.97
2022-08-28T18:58:35.702Z,101970.63
2022-08-28T19:00:38.600Z,101978.50
2022-08-28T19:02:41.775Z,101973.31
2022-08-28T19:04:45.065Z,101980.38
2022-08-28T19:06:47.072Z,101975.94
2022-08-28T19:08:49.131Z,101975.13
2022-08-28T19:10:51.874Z,101976.81
2022-08-28T19:12:53.968Z,101979.44
2022-08-28T19:14:59.428Z,101987.38
2022-08-28T19:17:02.035Z,101978.63
2022-08-28T19:19:04.385Z,101989.13
2022-08-28T19:21:12.191Z,101978.63
2022-08-28T19:23:18.425Z,101978.66
2022-08-28T19:25:28.844Z,101985.66
2022-08-28T19:27:32.902Z,101990.03
2022-08-28T19:29:36.137Z,101990.88
2022-08-28T19:31:38.959Z,101990.00
2022-08-28T19:33:41.084Z,101997.00
2022-08-28T19:35:43.447Z,101990.06
2022-08-28T19:37:45.733Z,101994.47
2022-08-28T19:39:56.438Z,101995.34
2022-08-28T19:41:59.846Z,101997.94
2022-08-28T19:44:03.667Z,101999.69
2022-08-28T19:46:14.053Z,101996.19
2022-08-28T19:48:21.866Z,101997.94
2022-08-28T19:50:24.145Z,101997.97
2022-08-28T19:52:26.200Z,101993.63
2022-08-28T19:54:28.135Z,101999.75
2022-08-28T19:56:32.559Z,101994.53
2022-08-28T19:58:36.242Z,102001.53
2022-08-28T20:00:38.153Z,102000.63
2022-08-28T20:02:40.482Z,102005.84
2022-08-28T20:04:42.579Z,102005.00
2022-08-28T20:06:46.144Z,102016.34
2022-08-28T20:08:48.028Z,102014.63
2022-08-28T20:10:50.646Z,102025.97
2022-08-28T20:12:53.716Z,102027.69
2022-08-28T20:14:59.027Z,102029.47
2022-08-28T20:17:05.424Z,102035.56
2022-08-28T20:19:10.746Z,102031.22
2022-08-28T20:21:13.211Z,102033.84
2022-08-28T20:23:19.696Z,102029.47
2022-08-28T20:25:22.163Z,102028.63
2022-08-28T20:27:24.263Z,102035.56
2022-08-28T20:29:34.687Z,102035.56
2022-08-28T20:31:43.007Z,102035.56
2022-08-28T20:33:46.704Z,102033.84
2022-08-28T20:35:48.706Z,102033.81
2022-08-28T20:37:50.614Z,102033.84
2022-08-28T20:39:57.750Z,102036.47
2022-08-28T20:41:59.846Z,102031.22
2022-08-28T20:44:05.082Z,102044.31
2022-08-28T20:46:08.040Z,102042.56
2022-08-28T20:48:10.066Z,102040.81
2022-08-28T20:50:14.236Z,102040.78
2022-08-28T20:52:16.500Z,102040.78
2022-08-28T20:54:21.097Z,102032.97
2022-08-28T20:56:23.441Z,102049.53
2022-08-28T20:58:27.127Z,102043.41
2022-08-28T21:00:29.291Z,102041.69
2022-08-28T21:02:31.773Z,102052.16
2022-08-28T21:04:39.245Z,102043.41
2022-08-28T21:06:41.657Z,102039.91
2022-08-28T21:08:43.621Z,102039.94
2022-08-28T21:10:46.049Z,102041.66
2022-08-28T21:12:48.128Z,102045.13
2022-08-28T21:14:51.459Z,102045.16
2022-08-28T21:16:54.420Z,102041.66
2022-08-28T21:19:15.118Z,102044.28
2022-08-28T21:21:18.355Z,102045.13
2022-08-28T21:23:22.334Z,102048.66
2022-08-28T21:25:25.240Z,102049.53
2022-08-28T21:27:27.769Z,102047.78
2022-08-28T21:29:34.933Z,102046.91
2022-08-28T21:31:37.275Z,102049.53
2022-08-28T21:33:41.549Z,102046.03
2022-08-28T21:35:44.136Z,102044.28
2022-08-28T21:37:46.340Z,102039.91
2022-08-28T21:39:48.466Z,102041.66
2022-08-28T21:41:51.465Z,102039.03
2022-08-28T21:43:53.550Z,102035.56
2022-08-28T21:46:03.433Z,102039.94
2022-08-28T21:48:06.251Z,102042.53
2022-08-28T21:50:11.075Z,102035.53
2022-08-28T21:52:13.015Z,102039.03
2022-08-28T21:54:15.146Z,102037.28
2022-08-28T21:56:25.146Z,102039.91
2022-08-28T21:58:27.229Z,102039.03
2022-08-28T22:00:29.252Z,102041.66
2022-08-28T22:02:31.278Z,102045.13
2022-08-28T22:04:33.614Z,102046.84
2022-08-28T22:06:35.901Z,102040.75
2022-08-28T22:08:39.966Z,102047.72
2022-08-28T22:10:43.983Z,102044.25
2022-08-28T22:12:45.956Z,102044.25
2022-08-28T22:14:48.456Z,102053.81
2022-08-28T22:16:50.857Z,102045.97
2022-08-28T22:18:53.239Z,102042.50
2022-08-28T22:21:13.910Z,102039.88
2022-08-28T22:23:17.889Z,102039.88
2022-08-28T22:25:20.034Z,102041.63
2022-08-28T22:27:22.581Z,102044.22
2022-08-28T22:29:33.265Z,102044.22
2022-08-28T22:31:35.473Z,102039.88
2022-08-28T22:33:39.275Z,102045.03
2022-08-28T22:35:41.265Z,102043.34
2022-08-28T22:37:43.370Z,102041.56
2022-08-28T22:39:45.455Z,102040.69
2022-08-28T22:41:47.669Z,102045.03
2022-08-28T22:43:50.918Z,102050.25
2022-08-28T22:45:52.919Z,102046.78
2022-08-28T22:47:54.995Z,102046.78
2022-08-28T22:49:58.602Z,102036.31
2022-08-28T22:52:00.537Z,102045.91
2022-08-28T22:54:02.645Z,102045.00
2022-08-28T22:56:04.935Z,102045.88
2022-08-28T22:58:07.672Z,102047.63
2022-08-28T23:00:13.881Z,102049.34
2022-08-28T23:02:18.481Z,102048.47
2022-08-28T23:04:20.513Z,102059.81
2022-08-28T23:06:27.940Z,102052.84
2022-08-28T23:08:33.874Z,102051.97
2022-08-28T23:10:57.492Z,102050.22
2022-08-28T23:12:58.480Z,102051.09
2022-08-28T23:15:02.115Z,102055.41
2022-08-28T23:17:04.172Z,102055.44
2022-08-28T23:19:09.132Z,102058.03
2022-08-28T23:21:11.690Z,102055.41
2022-08-28T23:23:14.208Z,102055.41
2022-08-28T23:25:19.460Z,102052.81
2022-08-28T23:27:37.084Z,102051.06
2022-08-28T23:29:39.549Z,102064.13
2022-08-28T23:31:41.642Z,102064.13
2022-08-28T23:33:43.927Z,102068.44
2022-08-28T23:35:45.932Z,102068.44
2022-08-28T23:37:51.851Z,102064.94
2022-08-28T23:39:54.597Z,102069.31
2022-08-28T23:41:56.752Z,102067.59
2022-08-28T23:43:58.901Z,102068.44
2022-08-28T23:46:01.197Z,102075.41
2022-08-28T23:48:04.605Z,102071.03
2022-08-28T23:50:09.631Z,102064.94
2022-08-28T23:52:12.407Z,102065.81
2022-08-28T23:54:14.863Z,102068.44
2022-08-28T23:56:17.650Z,102071.03
2022-08-28T23:58:20.750Z,102072.78
